createdAt,value
2022-11-04T04:12:27.312Z,63
2022-11-04T04:15:26.646Z,60.2
2022-11-04T04:16:42.002Z,61.2
2022-11-04T04:17:57.307Z,60.2
2022-11-04T04:19:12.545Z,61.2
2022-11-04T04:20:28.793Z,61.7
2022-11-04T04:21:45.043Z,60.4
2022-11-04T04:23:01.000Z,61
2022-11-04T04:24:17.516Z,61
2022-11-04T04:25:33.757Z,60.9
2022-11-04T04:26:50.010Z,63.4
2022-11-04T04:28:06.242Z,60.2
2022-11-04T04:29:22.467Z,60.9
2022-11-04T04:30:38.716Z,61.7
2022-11-04T04:31:54.952Z,60.2
2022-11-04T04:33:11.203Z,60.1
2022-11-04T04:34:27.427Z,60.1
2022-11-04T04:35:42.699Z,59.7
2022-11-04T04:36:58.930Z,58.6
2022-11-04T04:38:15.163Z,60.5
2022-11-04T04:39:31.417Z,60.4
2022-11-04T04:40:47.662Z,60.7
2022-11-04T04:42:03.902Z,60.2
2022-11-04T04:43:20.122Z,63.4
2022-11-04T04:44:35.398Z,59.2
2022-11-04T04:45:50.645Z,58.8
2022-11-04T04:47:06.891Z,60.2
2022-11-04T04:48:23.120Z,60.9
2022-11-04T04:49:39.377Z,59.9
2022-11-04T04:50:55.615Z,58.9
2022-11-04T04:52:11.852Z,60.7
2022-11-04T04:53:28.091Z,61.2
2022-11-04T04:54:44.333Z,60.2
2022-11-04T04:56:00.567Z,59.4
2022-11-04T04:57:16.804Z,60.5
2022-11-04T04:58:33.052Z,60.4
2022-11-04T04:59:49.284Z,59.2
2022-11-04T05:01:05.506Z,59.6
2022-11-04T05:03:37.013Z,60.4
2022-11-04T05:06:09.489Z,60.1
2022-11-04T05:07:25.712Z,61.3
2022-11-04T05:08:41.968Z,59.9
2022-11-04T05:11:14.429Z,60.7
2022-11-04T05:13:45.941Z,61.7
2022-11-04T05:16:18.421Z,59.7
2022-11-04T05:26:28.354Z,61
2022-11-04T05:27:44.590Z,60.9
2022-11-04T05:29:00.821Z,60.7
2022-11-04T05:30:16.086Z,60.7
2022-11-04T05:31:31.335Z,61.5
2022-11-04T05:32:47.571Z,59.7
2022-11-04T05:36:35.323Z,60.9
2022-11-04T05:39:07.804Z,61.5
2022-11-04T05:41:40.288Z,61.2
2022-11-04T05:45:29.003Z,60.7
2022-11-04T05:46:44.247Z,62
2022-11-04T05:48:00.480Z,61.2
2022-11-04T05:49:16.737Z,61.5
2022-11-04T05:50:32.977Z,60.2
2022-11-04T05:51:49.207Z,61.5
2022-11-04T05:54:21.688Z,59.6
2022-11-04T05:56:54.185Z,60.9
2022-11-04T06:04:31.615Z,61.3
2022-11-04T06:07:04.090Z,62
2022-11-04T06:08:20.324Z,61.5
2022-11-04T06:17:13.024Z,61.3
2022-11-04T06:19:45.504Z,62.1
2022-11-04T06:22:17.984Z,61.2
2022-11-04T06:23:34.217Z,63.3
2022-11-04T06:24:49.489Z,60.5
2022-11-04T06:26:04.732Z,62.1
2022-11-04T06:27:19.990Z,60.7
2022-11-04T06:29:52.472Z,61.7
2022-11-04T06:32:24.953Z,60.7
2022-11-04T06:42:34.881Z,60.2
2022-11-04T06:45:07.349Z,60.7
2022-11-04T06:52:44.787Z,60.5
2022-11-04T06:54:00.042Z,61
2022-11-04T06:55:15.318Z,62.6
2022-11-04T07:07:57.700Z,59.6
2022-11-04T07:20:40.094Z,58.3
2022-11-04T07:23:12.589Z,59.7
2022-11-04T07:33:22.488Z,58.6
2022-11-04T07:35:54.968Z,60.5
2022-11-04T07:42:16.237Z,58.9
2022-11-04T07:43:32.534Z,58.9
2022-11-04T07:47:21.446Z,59.2
2022-11-04T07:48:37.741Z,61
2022-11-04T07:49:53.996Z,61
2022-11-04T07:51:09.346Z,60.5
2022-11-04T07:54:58.074Z,58.3
2022-11-04T08:01:19.270Z,58.6
2022-11-04T08:03:51.754Z,57.2
2022-11-04T08:11:29.190Z,58
2022-11-04T08:14:01.670Z,58.3
2022-11-04T08:16:34.151Z,57.5
2022-11-04T08:22:55.410Z,58.6
2022-11-04T08:24:11.721Z,60.1
2022-11-04T08:28:00.605Z,58.6
2022-11-04T08:31:49.525Z,58.6
2022-11-04T08:33:05.818Z,56.7
2022-11-04T08:38:11.015Z,56.7
2022-11-04T08:39:27.450Z,57
2022-11-04T08:40:43.850Z,58.1
2022-11-04T08:42:00.272Z,59.7
2022-11-04T08:43:16.688Z,57.8
2022-11-04T08:45:49.512Z,58
2022-11-04T08:47:05.925Z,55.5
2022-11-04T08:50:55.166Z,55.5
2022-11-04T08:53:27.993Z,55.2
2022-11-04T08:56:01.049Z,55.4
2022-11-04T08:57:17.670Z,55.2
2022-11-04T08:58:34.276Z,54.1
2022-11-04T09:01:07.527Z,55.5
2022-11-04T09:02:24.138Z,56.2
2022-11-04T09:03:40.765Z,54.9
2022-11-04T09:04:57.391Z,55.9
2022-11-04T09:06:14.006Z,54.7
2022-11-04T09:07:30.613Z,53.8
2022-11-04T09:08:47.235Z,54.7
2022-11-04T09:14:34.447Z,53.4
2022-11-04T09:16:04.972Z,54.6
2022-11-04T09:17:35.486Z,54.6
2022-11-04T09:21:40.000Z,54.6
2022-11-04T09:23:10.734Z,54.3
2022-11-04T09:27:42.268Z,54.1
2022-11-04T09:29:12.003Z,55.2
2022-11-04T09:30:27.355Z,54.1
2022-11-04T09:35:32.555Z,56
2022-11-04T09:40:37.760Z,53.8
2022-11-04T09:41:54.077Z,53.4
2022-11-04T09:44:26.681Z,53
2022-11-04T09:46:59.279Z,54.3
2022-11-04T09:48:15.572Z,52.8
2022-11-04T09:53:20.774Z,53.9
2022-11-04T09:58:25.993Z,54.4
2022-11-04T10:03:31.197Z,52.8
2022-11-04T10:04:47.494Z,55.1
2022-11-04T10:06:03.775Z,55.7
2022-11-04T10:07:20.094Z,57.2
2022-11-04T10:13:40.361Z,54.6
2022-11-04T10:16:12.831Z,55.7
2022-11-04T10:17:29.053Z,55.1
2022-11-04T10:18:44.339Z,55.5
2022-11-04T10:20:00.573Z,56
2022-11-04T10:21:16.818Z,54.3
2022-11-04T10:26:21.771Z,54.3
2022-11-04T10:28:54.260Z,56.3
2022-11-04T10:31:26.725Z,53.4
2022-11-04T10:32:42.977Z,53.8
2022-11-04T10:33:59.215Z,53.8
2022-11-04T10:40:20.398Z,54.7
2022-11-04T10:41:36.640Z,56.2
2022-11-04T10:42:51.888Z,54.3
2022-11-04T10:44:08.135Z,54.7
2022-11-04T10:46:40.619Z,52
2022-11-04T10:47:56.851Z,55.2
2022-11-04T10:56:50.526Z,53.6
2022-11-04T10:59:23.003Z,53.3
2022-11-04T11:00:38.263Z,53.4
2022-11-04T11:01:53.514Z,53.4
2022-11-04T11:03:08.775Z,53.9
2022-11-04T11:04:25.023Z,52.8
2022-11-04T11:05:41.246Z,53.6
2022-11-04T11:06:57.499Z,54.4
2022-11-04T11:08:13.731Z,55.9
2022-11-04T11:09:29.970Z,53.4
2022-11-04T11:10:46.219Z,52.5
2022-11-04T11:12:02.451Z,51.5
2022-11-04T11:13:18.698Z,55.1
2022-11-04T11:14:34.925Z,56.7
2022-11-04T11:15:50.191Z,55.5
2022-11-04T11:17:05.440Z,54.9
2022-11-04T11:18:21.682Z,55.7
2022-11-04T11:19:37.921Z,54.1
2022-11-04T11:20:54.000Z,55.2
2022-11-04T11:22:10.416Z,54.4
2022-11-04T11:23:26.653Z,53.9
2022-11-04T11:24:42.888Z,54.3
2022-11-04T11:25:59.130Z,53.4
2022-11-04T11:27:15.357Z,54.3
2022-11-04T11:28:31.597Z,55.1
2022-11-04T11:29:46.861Z,53.8
2022-11-04T11:31:02.128Z,54.3
2022-11-04T11:32:18.365Z,57.3
2022-11-04T11:33:34.606Z,53.3
2022-11-04T11:34:50.830Z,53.1
2022-11-04T11:36:07.076Z,55.5
2022-11-04T11:37:23.324Z,54.3
2022-11-04T11:38:39.551Z,54.3
2022-11-04T11:39:55.803Z,53.1
2022-11-04T11:41:12.034Z,54.6
2022-11-04T11:42:28.274Z,55.9
2022-11-04T11:43:44.511Z,54.4
2022-11-04T11:45:00.753Z,53.4
2022-11-04T11:46:16.988Z,54.1
2022-11-04T11:47:32.243Z,53.3
2022-11-04T11:48:48.499Z,53.9
2022-11-04T11:50:04.739Z,54.9
2022-11-04T11:51:20.962Z,54.3
2022-11-04T11:52:37.202Z,54.1
2022-11-04T11:53:53.456Z,53.3
2022-11-04T11:55:09.689Z,60.1
2022-11-04T11:56:24.948Z,55.9
2022-11-04T11:57:40.211Z,52.5
2022-11-04T11:58:55.466Z,53.4
2022-11-04T12:00:10.738Z,54.6
2022-11-04T12:01:26.962Z,55.1
2022-11-04T12:02:43.199Z,54.9
2022-11-04T12:03:59.445Z,53.8
2022-11-04T12:05:15.686Z,53.4
2022-11-04T12:06:31.923Z,53.4
2022-11-04T12:07:48.157Z,54.9
2022-11-04T12:09:04.391Z,53
2022-11-04T12:10:20.645Z,54.6
2022-11-04T12:11:36.887Z,55.5
2022-11-04T12:12:53.107Z,54.1
2022-11-04T12:14:09.363Z,55.5
2022-11-04T12:15:25.598Z,57.8
2022-11-04T12:16:40.860Z,53.8
2022-11-04T12:17:57.099Z,54.7
2022-11-04T12:19:13.334Z,56
2022-11-04T12:20:29.569Z,55.5
2022-11-04T12:21:45.809Z,54.4
2022-11-04T12:23:02.059Z,56.7
2022-11-04T12:24:18.283Z,56.7
2022-11-04T12:25:33.541Z,56.5
2022-11-04T12:26:48.804Z,57.5
2022-11-04T12:28:04.064Z,57.6
2022-11-04T12:29:19.315Z,55.5
2022-11-04T12:30:35.555Z,54.6
2022-11-04T12:31:51.811Z,54.9
2022-11-04T12:33:08.046Z,55.1
2022-11-04T12:34:24.295Z,53.8
2022-11-04T12:35:40.510Z,54.4
2022-11-04T12:36:56.760Z,53.9
2022-11-04T12:38:12.988Z,55.7
2022-11-04T12:39:29.238Z,53.6
2022-11-04T12:40:45.469Z,53.1
2022-11-04T12:42:01.719Z,52.5
2022-11-04T12:43:17.957Z,51.7
2022-11-04T12:44:34.188Z,54.3
2022-11-04T12:45:49.451Z,51.8
2022-11-04T12:47:05.694Z,54.7
2022-11-04T12:48:21.927Z,53.4
2022-11-04T12:49:38.165Z,53
2022-11-04T12:50:54.406Z,53.8
2022-11-04T12:52:10.657Z,52.5
2022-11-04T12:53:26.884Z,53.1
2022-11-04T12:54:42.153Z,55.1
2022-11-04T12:55:57.404Z,51.8
2022-11-04T12:57:13.634Z,51.5
2022-11-04T12:58:29.887Z,53.6
2022-11-04T12:59:46.122Z,53.3
2022-11-04T13:02:18.593Z,51.8
2022-11-04T13:03:34.839Z,50.4
2022-11-04T13:04:51.078Z,51.2
2022-11-04T13:06:07.312Z,52.5
2022-11-04T13:07:23.573Z,52
2022-11-04T13:08:39.797Z,52.8
2022-11-04T13:09:56.027Z,52.6
2022-11-04T13:11:12.280Z,53
2022-11-04T13:12:27.522Z,53.1
2022-11-04T13:13:43.763Z,53.1
2022-11-04T13:15:00.021Z,53.3
2022-11-04T13:16:16.260Z,53.3
2022-11-04T13:17:32.487Z,53.3
2022-11-04T13:18:48.735Z,54.3
2022-11-04T13:20:04.973Z,53.1
2022-11-04T13:21:21.206Z,53.9
2022-11-04T13:22:36.470Z,57.6
2022-11-04T13:23:51.717Z,53.4
2022-11-04T13:25:06.996Z,52.2
2022-11-04T13:26:22.233Z,56.3
2022-11-04T13:27:37.501Z,52.8
2022-11-04T13:28:52.763Z,53.6
2022-11-04T13:30:08.022Z,54.1
2022-11-04T13:31:23.279Z,54.7
2022-11-04T13:32:39.512Z,52.2
2022-11-04T13:33:55.753Z,54.6
2022-11-04T13:35:12.003Z,54.1
2022-11-04T13:36:28.239Z,52.6
2022-11-04T13:37:44.481Z,52
2022-11-04T13:39:00.720Z,52.5
2022-11-04T13:40:16.956Z,54.1
2022-11-04T13:41:33.187Z,53.3
2022-11-04T13:42:49.422Z,54.4
2022-11-04T13:44:04.684Z,52.2
2022-11-04T13:45:20.924Z,68.6
2022-11-04T13:46:37.161Z,56.7
2022-11-04T13:47:53.403Z,52.6
2022-11-04T13:49:09.641Z,52
2022-11-04T13:50:25.894Z,52.8
2022-11-04T13:51:42.122Z,52.3
2022-11-04T13:52:58.364Z,53
2022-11-04T13:54:14.604Z,52.3
2022-11-04T13:55:30.846Z,54.1
2022-11-04T13:56:46.104Z,53.8
2022-11-04T13:58:01.362Z,53.3
2022-11-04T13:59:17.600Z,53
2022-11-04T14:00:33.850Z,53.4
2022-11-04T14:01:50.075Z,53.1
2022-11-04T14:03:06.329Z,52.6
2022-11-04T14:04:22.557Z,52.8
2022-11-04T14:05:38.790Z,52
2022-11-04T14:06:55.036Z,54.3
2022-11-04T14:08:11.271Z,52.5
2022-11-04T14:09:27.515Z,53.6
2022-11-04T14:10:43.749Z,53
2022-11-04T14:11:59.992Z,52.5
2022-11-04T14:13:16.236Z,52.5
2022-11-04T14:14:31.505Z,53.3
2022-11-04T14:15:47.731Z,54.7
2022-11-04T14:17:03.963Z,52.2
2022-11-04T14:18:20.205Z,53.9
2022-11-04T14:19:36.448Z,53
2022-11-04T14:20:52.694Z,53
2022-11-04T14:22:08.928Z,52.5
2022-11-04T14:23:24.190Z,51.4
2022-11-04T14:24:39.451Z,52
2022-11-04T14:25:54.705Z,52.5
2022-11-04T14:27:09.959Z,52.8
2022-11-04T14:28:25.220Z,53
2022-11-04T14:29:40.467Z,53.3
2022-11-04T14:30:56.717Z,55.9
2022-11-04T14:32:12.963Z,53.4
2022-11-04T14:33:29.186Z,53.3
2022-11-04T14:34:45.435Z,53.3
2022-11-04T14:36:01.676Z,52.5
2022-11-04T14:37:17.925Z,53
2022-11-04T14:38:34.142Z,52.8
2022-11-04T14:39:50.389Z,52.6
2022-11-04T14:41:06.622Z,52.8
2022-11-04T14:42:22.872Z,52.3
2022-11-04T14:43:39.107Z,53.3
2022-11-04T14:44:55.339Z,52.3
2022-11-04T14:46:10.601Z,55.7
2022-11-04T14:47:26.849Z,52.5
2022-11-04T14:48:43.089Z,53.4
2022-11-04T14:49:59.317Z,52.8
2022-11-04T14:51:15.569Z,53.3
2022-11-04T14:52:31.812Z,53.4
2022-11-04T14:53:48.000Z,52.8
2022-11-04T14:55:03.311Z,52
2022-11-04T14:56:18.560Z,52.8
2022-11-04T14:57:34.796Z,53.1
2022-11-04T14:58:51.042Z,52.6
2022-11-04T15:00:07.268Z,51.7
2022-11-04T15:01:23.520Z,52.8
2022-11-04T15:02:39.759Z,51.8
2022-11-04T15:03:55.988Z,53.4
2022-11-04T15:05:12.233Z,53
2022-11-04T15:06:28.478Z,53
2022-11-04T15:07:44.722Z,53
2022-11-04T15:09:00.969Z,52.5
2022-11-04T15:10:17.204Z,52.8
2022-11-04T15:11:33.431Z,51.4
2022-11-04T15:12:48.693Z,56.2
2022-11-04T15:14:04.930Z,56.7
2022-11-04T15:15:21.175Z,52.8
2022-11-04T15:16:37.405Z,52
2022-11-04T15:17:53.656Z,53.8
2022-11-04T15:19:09.878Z,52
2022-11-04T15:20:26.131Z,52.5
2022-11-04T15:21:41.388Z,51.2
2022-11-04T15:22:56.654Z,53
2022-11-04T15:24:11.897Z,52.3
2022-11-04T15:25:27.155Z,53.8
2022-11-04T15:27:59.640Z,54.1
2022-11-04T15:29:15.875Z,52.3
2022-11-04T15:30:32.118Z,52.8
2022-11-04T15:31:48.359Z,53
2022-11-04T15:33:04.609Z,52
2022-11-04T15:34:20.838Z,53.8
2022-11-04T15:35:37.074Z,54.1
2022-11-04T15:36:53.323Z,53.3
2022-11-04T15:38:09.556Z,55.1
2022-11-04T15:39:25.790Z,53.8
2022-11-04T15:40:42.027Z,54.6
2022-11-04T15:41:57.286Z,51.7
2022-11-04T15:43:13.538Z,55.5
2022-11-04T15:44:29.763Z,53.1
2022-11-04T15:45:46.002Z,52.5
2022-11-04T15:47:02.246Z,52.6
2022-11-04T15:48:18.487Z,54.4
2022-11-04T15:49:34.740Z,53.8
2022-11-04T15:50:50.968Z,57.3
2022-11-04T15:52:06.239Z,53.4
2022-11-04T15:53:21.489Z,52.8
2022-11-04T15:54:37.724Z,55.5
2022-11-04T15:55:53.969Z,52.6
2022-11-04T15:57:10.209Z,52
2022-11-04T15:58:26.439Z,52.5
2022-11-04T15:59:42.691Z,53.1
2022-11-04T16:00:58.927Z,52.8
2022-11-04T16:02:15.157Z,53.8
2022-11-04T16:03:31.405Z,52.6
2022-11-04T16:04:47.653Z,52.2
2022-11-04T16:06:03.879Z,52.3
2022-11-04T16:07:20.112Z,55.2
2022-11-04T16:08:36.361Z,52.5
2022-11-04T16:09:51.613Z,51.5
2022-11-04T16:11:07.863Z,52
2022-11-04T16:12:24.098Z,51.8
2022-11-04T16:13:40.347Z,52.8
2022-11-04T16:14:56.566Z,53.8
2022-11-04T16:16:12.816Z,51.4
2022-11-04T16:17:29.047Z,51.8
2022-11-04T16:18:44.313Z,52.5
2022-11-04T16:19:59.571Z,52
2022-11-04T16:21:14.829Z,52.8
2022-11-04T16:22:30.098Z,52.6
2022-11-04T16:23:46.336Z,52
2022-11-04T16:25:02.565Z,52.8
2022-11-04T16:26:18.812Z,53.4
2022-11-04T16:27:35.041Z,52
2022-11-04T16:28:51.280Z,51.5
2022-11-04T16:30:07.522Z,50.1
2022-11-04T16:31:23.761Z,50.7
2022-11-04T16:32:40.001Z,53.1
2022-11-04T16:33:56.240Z,52.5
2022-11-04T16:35:12.484Z,51
2022-11-04T16:36:28.716Z,51.7
2022-11-04T16:37:44.959Z,52
2022-11-04T16:39:00.223Z,51.8
2022-11-04T16:40:16.449Z,52
2022-11-04T16:41:32.705Z,52
2022-11-04T16:42:48.941Z,53.8
2022-11-04T16:44:05.179Z,55.1
2022-11-04T16:45:21.426Z,67
2022-11-04T16:46:37.659Z,53.3
2022-11-04T16:47:52.915Z,56.3
2022-11-04T16:49:08.171Z,52.5
2022-11-04T16:50:23.440Z,51.4
2022-11-04T16:51:38.686Z,52.5
2022-11-04T16:52:53.944Z,51.2
2022-11-04T16:54:09.209Z,52.8
2022-11-04T16:55:25.457Z,51.5
2022-11-04T16:56:41.691Z,52.2
2022-11-04T16:57:57.925Z,50.9
2022-11-04T16:59:14.169Z,52.5
2022-11-04T17:00:30.416Z,52.2
2022-11-04T17:01:46.647Z,53
2022-11-04T17:03:02.879Z,54.9
2022-11-04T17:04:19.118Z,52.5
2022-11-04T17:05:35.367Z,52.5
2022-11-04T17:06:51.601Z,53.1
2022-11-04T17:08:07.840Z,52.8
2022-11-04T17:09:24.078Z,53.4
2022-11-04T17:10:39.332Z,53.1
2022-11-04T17:11:55.575Z,52.8
2022-11-04T17:13:11.820Z,52.5
2022-11-04T17:14:28.052Z,50.7
2022-11-04T17:15:44.310Z,53
2022-11-04T17:17:00.550Z,51.5
2022-11-04T17:18:16.769Z,51.4
2022-11-04T17:19:32.042Z,52.3
2022-11-04T17:20:47.297Z,50.7
2022-11-04T17:22:03.526Z,50.1
2022-11-04T17:23:18.801Z,50.4
2022-11-04T17:24:34.056Z,52.2
2022-11-04T17:25:50.288Z,53.3
2022-11-04T17:27:06.531Z,50.4
2022-11-04T17:28:22.775Z,53.1
2022-11-04T17:29:39.016Z,52.3
2022-11-04T17:30:55.244Z,52
2022-11-04T17:32:11.485Z,52
2022-11-04T17:33:27.721Z,52.3
2022-11-04T17:34:43.959Z,52.5
2022-11-04T17:36:00.215Z,52.8
2022-11-04T17:37:16.444Z,53.1
2022-11-04T17:38:32.694Z,53.6
2022-11-04T17:39:48.934Z,53.3
2022-11-04T17:41:04.173Z,51.8
2022-11-04T17:42:20.418Z,52
2022-11-04T17:43:36.672Z,51.8
2022-11-04T17:44:52.905Z,50.4
2022-11-04T17:46:09.149Z,53.6
2022-11-04T17:47:25.375Z,52.8
2022-11-04T17:48:41.621Z,51.4
2022-11-04T17:49:56.874Z,53.1
2022-11-04T17:51:12.134Z,52
2022-11-04T17:52:28.385Z,52
2022-11-04T17:53:43.631Z,49.9
2022-11-04T17:54:59.874Z,51.2
2022-11-04T17:56:15.125Z,52.5
2022-11-04T17:57:31.379Z,52.5
2022-11-04T17:58:46.635Z,50.5
2022-11-04T18:00:02.877Z,50.4
2022-11-04T18:01:19.107Z,53.1
2022-11-04T18:02:35.346Z,51.4
2022-11-04T18:03:51.589Z,51.2
2022-11-04T18:05:07.824Z,52
2022-11-04T18:06:24.062Z,50.2
2022-11-04T18:07:40.306Z,50.2
2022-11-04T18:08:56.543Z,49.9
2022-11-04T18:10:12.789Z,56
2022-11-04T18:11:29.023Z,50.9
2022-11-04T18:12:45.272Z,51.4
2022-11-04T18:14:01.521Z,52
2022-11-04T18:15:16.766Z,51
2022-11-04T18:16:33.011Z,52
2022-11-04T18:17:49.242Z,49.4
2022-11-04T18:19:05.489Z,50.1
2022-11-04T18:20:20.736Z,50.1
2022-11-04T18:21:36.009Z,49.9
2022-11-04T18:22:51.261Z,51
2022-11-04T18:24:06.522Z,52.5
2022-11-04T18:25:22.754Z,54.1
2022-11-04T18:26:38.988Z,51.5
2022-11-04T18:27:55.228Z,52.3
2022-11-04T18:29:11.477Z,49.4
2022-11-04T18:30:27.715Z,50.2
2022-11-04T18:31:43.949Z,50.2
2022-11-04T18:33:00.193Z,50.9
2022-11-04T18:34:16.430Z,48.8
2022-11-04T18:35:32.669Z,50.9
2022-11-04T18:36:48.902Z,49.9
2022-11-04T18:38:05.157Z,54.7
2022-11-04T18:39:21.398Z,50.4
2022-11-04T18:40:37.632Z,49.1
2022-11-04T18:41:52.882Z,47.5
2022-11-04T18:43:09.134Z,50.4
2022-11-04T18:44:25.359Z,49.4
2022-11-04T18:45:41.597Z,48.5
2022-11-04T18:46:57.856Z,52
2022-11-04T18:48:14.080Z,51.7
2022-11-04T18:49:29.338Z,51.2
2022-11-04T18:50:44.601Z,50.1
2022-11-04T18:52:00.833Z,50.2
2022-11-04T18:53:17.076Z,49.3
2022-11-04T18:54:33.319Z,49.3
2022-11-04T18:55:49.550Z,50.1
2022-11-04T18:57:05.799Z,51.2
2022-11-04T18:58:22.044Z,47.2
2022-11-04T18:59:38.281Z,49.9
2022-11-04T19:00:54.514Z,50.4
2022-11-04T19:02:09.776Z,50.1
2022-11-04T19:03:25.040Z,50.4
2022-11-04T19:04:40.287Z,50.5
2022-11-04T19:05:55.548Z,48.8
2022-11-04T19:07:11.783Z,50.2
2022-11-04T19:08:28.026Z,49.3
2022-11-04T19:09:44.271Z,51.7
2022-11-04T19:11:00.517Z,51
2022-11-04T19:12:16.747Z,51.8
2022-11-04T19:13:32.986Z,48.9
2022-11-04T19:14:49.221Z,51.8
2022-11-04T19:16:05.464Z,51.2
2022-11-04T19:17:21.704Z,50.7
2022-11-04T19:18:37.942Z,50.4
2022-11-04T19:19:54.195Z,50.4
2022-11-04T19:21:10.433Z,50.1
2022-11-04T19:22:25.680Z,48.6
2022-11-04T19:23:41.917Z,48.8
2022-11-04T19:24:58.174Z,51.2
2022-11-04T19:26:14.405Z,48.8
2022-11-04T19:27:30.637Z,49.3
2022-11-04T19:28:46.877Z,50.4
2022-11-04T19:30:03.122Z,50.7
2022-11-04T19:31:18.385Z,49.9
2022-11-04T19:32:33.641Z,51.8
2022-11-04T19:33:49.872Z,53
2022-11-04T19:35:06.108Z,51.4
2022-11-04T19:36:22.358Z,52.5
2022-11-04T19:37:38.591Z,50.4
2022-11-04T19:38:54.827Z,51.2
2022-11-04T19:40:11.074Z,51.2
2022-11-04T19:41:27.310Z,49.6
2022-11-04T19:42:43.557Z,51.5
2022-11-04T19:43:59.802Z,52.8
2022-11-04T19:45:16.039Z,53.1
2022-11-04T19:46:32.278Z,53.1
2022-11-04T19:47:48.510Z,49.7
2022-11-04T19:49:03.766Z,56.2
2022-11-04T19:50:20.016Z,54.7
2022-11-04T19:51:36.256Z,56.3
2022-11-04T19:52:52.496Z,55.1
2022-11-04T19:54:08.729Z,52.6
2022-11-04T19:55:24.962Z,51
2022-11-04T19:56:41.201Z,51.2
2022-11-04T19:57:56.463Z,55.1
2022-11-04T19:59:11.721Z,50.7
2022-11-04T20:00:26.992Z,51.2
2022-11-04T20:01:42.244Z,51.4
2022-11-04T20:02:57.498Z,51.7
2022-11-04T20:04:12.748Z,51.5
2022-11-04T20:05:28.016Z,51.2
2022-11-04T20:06:43.268Z,51.4
2022-11-04T20:07:59.509Z,51.8
2022-11-04T20:09:15.749Z,50.9
2022-11-04T20:10:31.999Z,48
2022-11-04T20:11:48.235Z,52
2022-11-04T20:13:04.474Z,48.8
2022-11-04T20:14:20.716Z,51.4
2022-11-04T20:15:36.960Z,50.4
2022-11-04T20:16:53.186Z,57.5
2022-11-04T20:18:09.426Z,51.5
2022-11-04T20:19:25.668Z,53.3
2022-11-04T20:20:41.908Z,49.4
2022-11-04T20:21:58.146Z,48.9
2022-11-04T20:23:13.417Z,48.8
2022-11-04T20:24:29.650Z,50.5
2022-11-04T20:25:45.880Z,49.7
2022-11-04T20:27:02.126Z,49.7
2022-11-04T20:28:18.359Z,52.5
2022-11-04T20:29:34.601Z,50.4
2022-11-04T20:30:50.855Z,49.1
2022-11-04T20:32:06.111Z,48.9
2022-11-04T20:33:21.358Z,47.8
2022-11-04T20:34:36.622Z,50.9
2022-11-04T20:35:51.869Z,49.3
2022-11-04T20:37:07.149Z,49.9
2022-11-04T20:38:22.397Z,49.4
2022-11-04T20:39:38.629Z,49.4
2022-11-04T20:40:54.880Z,50.1
2022-11-04T20:42:11.110Z,48.3
2022-11-04T20:43:27.349Z,50.2
2022-11-04T20:44:43.606Z,49.3
2022-11-04T20:45:59.833Z,51.8
2022-11-04T20:47:16.065Z,59.7
2022-11-04T20:48:32.316Z,49.9
2022-11-04T20:49:48.551Z,48.3
2022-11-04T20:51:04.794Z,47.2
2022-11-04T20:52:21.041Z,49.9
2022-11-04T20:53:37.271Z,48.3
2022-11-04T20:54:52.523Z,46
2022-11-04T20:56:08.761Z,47.3
2022-11-04T20:57:25.008Z,47.6
2022-11-04T20:58:41.247Z,48.9
2022-11-04T20:59:57.486Z,46.4
2022-11-04T21:01:13.727Z,51.5
2022-11-04T21:02:29.969Z,48
2022-11-04T21:03:45.232Z,46.5
2022-11-04T21:05:00.483Z,47.6
2022-11-04T21:06:16.731Z,47.5
2022-11-04T21:07:32.962Z,51.4
2022-11-04T21:08:49.210Z,47.6
2022-11-04T21:10:05.444Z,48
2022-11-04T21:11:21.676Z,49.9
2022-11-04T21:12:37.915Z,46.7
2022-11-04T21:13:54.160Z,48.3
2022-11-04T21:15:10.406Z,50.2
2022-11-04T21:16:26.634Z,47.2
2022-11-04T21:17:42.874Z,48.5
2022-11-04T21:18:59.107Z,47.5
2022-11-04T21:20:15.351Z,48.3
2022-11-04T21:21:30.603Z,49.4
2022-11-04T21:22:46.847Z,48
2022-11-04T21:24:03.097Z,50.1
2022-11-04T21:25:19.337Z,48.5
2022-11-04T21:26:35.556Z,48.5
2022-11-04T21:27:51.809Z,48.3
2022-11-04T21:29:08.030Z,47
2022-11-04T21:30:23.316Z,47.5
2022-11-04T21:31:38.558Z,48
2022-11-04T21:32:53.824Z,48.9
2022-11-04T21:34:09.084Z,55.5
2022-11-04T21:35:24.328Z,47.8
2022-11-04T21:36:39.587Z,47.8
2022-11-04T21:37:55.826Z,49.4
2022-11-04T21:39:12.078Z,48.3
2022-11-04T21:40:28.307Z,46.8
2022-11-04T21:41:44.567Z,47.8
2022-11-04T21:43:00.786Z,46.5
2022-11-04T21:44:17.036Z,46.8
2022-11-04T21:45:33.263Z,48.3
2022-11-04T21:46:49.501Z,44.4
2022-11-04T21:48:05.738Z,48.8
2022-11-04T21:49:21.992Z,55.2
2022-11-04T21:50:38.225Z,48.6
2022-11-04T21:51:54.461Z,48.8
2022-11-04T21:53:09.726Z,48.1
2022-11-04T21:54:25.955Z,51.7
2022-11-04T21:55:42.194Z,46.2
2022-11-04T21:56:58.450Z,49.6
2022-11-04T21:58:14.691Z,46
2022-11-04T21:59:30.928Z,60.2
2022-11-04T22:00:47.157Z,47.2
2022-11-04T22:02:02.433Z,47.3
2022-11-04T22:03:17.683Z,46.7
2022-11-04T22:04:32.954Z,48.1
2022-11-04T22:05:49.172Z,48.9
2022-11-04T22:07:04.430Z,62.3
2022-11-04T22:08:20.695Z,47.6
2022-11-04T22:09:36.919Z,47.2
2022-11-04T22:10:53.160Z,53
2022-11-04T22:12:09.387Z,47.2
2022-11-04T22:13:24.664Z,46.7
2022-11-04T22:14:40.897Z,48.9
2022-11-04T22:15:57.139Z,64.2
2022-11-04T22:17:13.376Z,45.7
2022-11-04T22:18:29.619Z,47.2
2022-11-04T22:19:45.862Z,44.9
2022-11-04T22:21:02.101Z,46
2022-11-04T22:22:18.324Z,47.6
2022-11-04T22:23:33.602Z,49.9
2022-11-04T22:24:48.842Z,49.3
2022-11-04T22:26:05.102Z,47.2
2022-11-04T22:27:20.353Z,68.1
2022-11-04T22:28:35.611Z,47.8
2022-11-04T22:29:51.832Z,49.4
2022-11-04T22:31:08.081Z,48.3
2022-11-04T22:32:24.331Z,45.7
2022-11-04T22:33:40.556Z,45.9
2022-11-04T22:34:56.813Z,48.1
2022-11-04T22:36:13.050Z,64.2
2022-11-04T22:37:29.284Z,47.3
2022-11-04T22:38:45.517Z,46.2
2022-11-04T22:40:01.769Z,46.8
2022-11-04T22:41:17.994Z,51.4
2022-11-04T22:42:34.244Z,46
2022-11-04T22:43:50.476Z,46
2022-11-04T22:45:05.733Z,45.7
2022-11-04T22:46:21.972Z,51.4
2022-11-04T22:47:38.211Z,47.8
2022-11-04T22:48:54.446Z,63.8
2022-11-04T22:50:10.704Z,46
2022-11-04T22:51:26.942Z,51.2
2022-11-04T22:52:43.174Z,45.7
2022-11-04T22:53:58.437Z,53.4
2022-11-04T22:55:13.682Z,47.5
2022-11-04T22:56:29.923Z,51
2022-11-04T22:57:46.166Z,45.7
2022-11-04T22:59:01.440Z,47.5
2022-11-04T23:00:17.681Z,44.7
2022-11-04T23:01:32.931Z,45.7
2022-11-04T23:02:49.175Z,44.6
2022-11-04T23:04:05.403Z,63.8
2022-11-04T23:05:21.654Z,47.8
2022-11-04T23:06:37.889Z,59.6
2022-11-04T23:07:54.127Z,46.2
2022-11-04T23:09:10.365Z,45.2
2022-11-04T23:10:26.598Z,57.8
2022-11-04T23:11:42.840Z,44.3
2022-11-04T23:12:59.090Z,46.2
2022-11-04T23:14:15.325Z,49.9
2022-11-04T23:15:30.580Z,45.1
2022-11-04T23:16:45.841Z,50.9
2022-11-04T23:18:02.083Z,49.4
2022-11-04T23:19:18.330Z,45.9
2022-11-04T23:20:34.555Z,61.2
2022-11-04T23:21:50.793Z,55.7
2022-11-04T23:23:07.050Z,45.1
2022-11-04T23:24:23.280Z,47.2
2022-11-04T23:25:39.528Z,48.1
2022-11-04T23:26:55.765Z,45.7
2022-11-04T23:28:12.003Z,48.1
2022-11-04T23:29:28.249Z,46.2
2022-11-04T23:30:44.484Z,46.5
2022-11-04T23:32:00.719Z,48.6
2022-11-04T23:33:15.965Z,43.1
2022-11-04T23:34:32.217Z,63
2022-11-04T23:35:48.456Z,48.9
2022-11-04T23:37:04.694Z,54.1
2022-11-04T23:38:20.937Z,49.4
2022-11-04T23:39:37.174Z,48.9
2022-11-04T23:40:53.415Z,47.8
2022-11-04T23:42:08.675Z,46.5
2022-11-04T23:43:23.933Z,48.5
2022-11-04T23:44:40.167Z,48.5
2022-11-04T23:45:56.412Z,47.5
2022-11-04T23:47:12.647Z,49.4
2022-11-04T23:48:28.887Z,64.6
2022-11-04T23:49:45.128Z,48.5
2022-11-04T23:51:01.361Z,44.9
2022-11-04T23:52:17.611Z,48.6
2022-11-04T23:53:33.856Z,48.3
2022-11-04T23:54:50.079Z,49.6
2022-11-04T23:56:06.317Z,48.6
2022-11-04T23:57:22.570Z,46.2
2022-11-04T23:58:38.807Z,48.6
2022-11-04T23:59:54.068Z,49.6
